sensor_id;sensor_type;location;lat;lon;timestamp;P1;durP1;ratioP1;P2;durP2;ratioP2
9467;SDS011;4772;52.382;9.752;2023-03-14T00:01:09;4.87;;;2.00;;
9467;SDS011;4772;52.382;9.752;2023-03-14T00:03:35;4.60;;;1.80;;
9467;SDS011;4772;52.382;9.752;2023-03-14T00:06:02;5.40;;;1.80;;
9467;SDS011;4772;52.382;9.752;2023-03-14T00:08:28;4.20;;;1.87;;
9467;SDS011;4772;52.382;9.752;2023-03-14T00:10:54;4.67;;;1.90;;
9467;SDS011;4772;52.382;9.752;2023-03-14T00:13:20;3.43;;;1.90;;
9467;SDS011;4772;52.382;9.752;2023-03-14T00:15:46;3.77;;;1.63;;
9467;SDS011;4772;52.382;9.752;2023-03-14T00:18:12;4.10;;;1.77;;
9467;SDS011;4772;52.382;9.752;2023-03-14T00:20:38;3.17;;;1.93;;
9467;SDS011;4772;52.382;9.752;2023-03-14T00:23:04;6.20;;;2.33;;
9467;SDS011;4772;52.382;9.752;2023-03-14T00:25:46;7.50;;;2.20;;
9467;SDS011;4772;52.382;9.752;2023-03-14T00:28:12;2.93;;;1.60;;
9467;SDS011;4772;52.382;9.752;2023-03-14T00:30:38;3.03;;;1.63;;
9467;SDS011;4772;52.382;9.752;2023-03-14T00:33:04;4.80;;;1.67;;
9467;SDS011;4772;52.382;9.752;2023-03-14T00:35:30;3.10;;;1.60;;
9467;SDS011;4772;52.382;9.752;2023-03-14T00:37:57;5.23;;;1.40;;
9467;SDS011;4772;52.382;9.752;2023-03-14T00:40:23;3.77;;;1.70;;
9467;SDS011;4772;52.382;9.752;2023-03-14T00:42:49;3.40;;;1.80;;
9467;SDS011;4772;52.382;9.752;2023-03-14T00:45:15;4.30;;;1.67;;
9467;SDS011;4772;52.382;9.752;2023-03-14T00:47:41;5.93;;;1.77;;
9467;SDS011;4772;52.382;9.752;2023-03-14T00:50:10;3.23;;;1.50;;
9467;SDS011;4772;52.382;9.752;2023-03-14T00:52:36;4.10;;;1.80;;
9467;SDS011;4772;52.382;9.752;2023-03-14T00:55:02;3.53;;;1.70;;
9467;SDS011;4772;52.382;9.752;2023-03-14T00:57:29;3.47;;;1.70;;
9467;SDS011;4772;52.382;9.752;2023-03-14T00:59:55;2.33;;;1.40;;
9467;SDS011;4772;52.382;9.752;2023-03-14T01:02:21;3.83;;;2.00;;
9467;SDS011;4772;52.382;9.752;2023-03-14T01:04:48;3.50;;;1.50;;
9467;SDS011;4772;52.382;9.752;2023-03-14T01:07:14;2.50;;;1.50;;
9467;SDS011;4772;52.382;9.752;2023-03-14T01:09:40;5.27;;;1.77;;
9467;SDS011;4772;52.382;9.752;2023-03-14T01:12:06;3.77;;;1.43;;
9467;SDS011;4772;52.382;9.752;2023-03-14T01:14:32;2.03;;;1.50;;
9467;SDS011;4772;52.382;9.752;2023-03-14T01:16:58;2.93;;;1.43;;
9467;SDS011;4772;52.382;9.752;2023-03-14T01:19:28;3.70;;;1.67;;
9467;SDS011;4772;52.382;9.752;2023-03-14T01:21:54;5.13;;;1.60;;
9467;SDS011;4772;52.382;9.752;2023-03-14T01:24:20;3.47;;;1.80;;
9467;SDS011;4772;52.382;9.752;2023-03-14T01:26:46;3.63;;;1.60;;
9467;SDS011;4772;52.382;9.752;2023-03-14T01:29:12;5.37;;;1.80;;
9467;SDS011;4772;52.382;9.752;2023-03-14T01:31:38;4.57;;;1.77;;
9467;SDS011;4772;52.382;9.752;2023-03-14T01:34:04;4.47;;;1.57;;
9467;SDS011;4772;52.382;9.752;2023-03-14T01:36:30;4.10;;;1.90;;
9467;SDS011;4772;52.382;9.752;2023-03-14T01:38:56;6.57;;;2.00;;
9467;SDS011;4772;52.382;9.752;2023-03-14T01:41:23;4.10;;;1.70;;
9467;SDS011;4772;52.382;9.752;2023-03-14T01:43:50;3.70;;;1.77;;
9467;SDS011;4772;52.382;9.752;2023-03-14T01:48:51;6.97;;;1.93;;
9467;SDS011;4772;52.382;9.752;2023-03-14T01:51:19;4.20;;;1.73;;
9467;SDS011;4772;52.382;9.752;2023-03-14T01:53:47;2.83;;;1.90;;
9467;SDS011;4772;52.382;9.752;2023-03-14T01:56:14;3.70;;;1.80;;
9467;SDS011;4772;52.382;9.752;2023-03-14T01:58:41;4.07;;;1.63;;
9467;SDS011;4772;52.382;9.752;2023-03-14T02:01:10;4.00;;;1.73;;
9467;SDS011;4772;52.382;9.752;2023-03-14T02:03:38;3.53;;;1.60;;
9467;SDS011;4772;52.382;9.752;2023-03-14T02:06:09;2.47;;;1.47;;
9467;SDS011;4772;52.382;9.752;2023-03-14T02:08:36;4.13;;;1.50;;
9467;SDS011;4772;52.382;9.752;2023-03-14T02:11:03;2.33;;;1.67;;
9467;SDS011;4772;52.382;9.752;2023-03-14T02:13:29;4.60;;;1.70;;
9467;SDS011;4772;52.382;9.752;2023-03-14T02:15:55;3.50;;;1.77;;
9467;SDS011;4772;52.382;9.752;2023-03-14T02:18:21;3.17;;;1.37;;
9467;SDS011;4772;52.382;9.752;2023-03-14T02:23:13;4.20;;;1.67;;
9467;SDS011;4772;52.382;9.752;2023-03-14T02:28:07;4.63;;;1.67;;
9467;SDS011;4772;52.382;9.752;2023-03-14T02:30:33;4.00;;;1.50;;
9467;SDS011;4772;52.382;9.752;2023-03-14T02:33:04;4.83;;;1.60;;
9467;SDS011;4772;52.382;9.752;2023-03-14T02:35:53;4.67;;;1.70;;
9467;SDS011;4772;52.382;9.752;2023-03-14T02:38:18;2.90;;;1.60;;
9467;SDS011;4772;52.382;9.752;2023-03-14T02:40:45;4.13;;;1.60;;
9467;SDS011;4772;52.382;9.752;2023-03-14T02:43:12;3.17;;;1.73;;
9467;SDS011;4772;52.382;9.752;2023-03-14T02:45:40;3.97;;;1.73;;
9467;SDS011;4772;52.382;9.752;2023-03-14T02:48:07;2.70;;;1.33;;
9467;SDS011;4772;52.382;9.752;2023-03-14T02:50:34;3.70;;;1.57;;
9467;SDS011;4772;52.382;9.752;2023-03-14T02:53:00;5.53;;;1.77;;
9467;SDS011;4772;52.382;9.752;2023-03-14T02:55:26;4.13;;;1.60;;
9467;SDS011;4772;52.382;9.752;2023-03-14T02:57:52;3.07;;;1.60;;
9467;SDS011;4772;52.382;9.752;2023-03-14T03:00:19;2.53;;;1.40;;
9467;SDS011;4772;52.382;9.752;2023-03-14T03:02:45;2.60;;;1.47;;
9467;SDS011;4772;52.382;9.752;2023-03-14T03:05:11;3.60;;;1.53;;
9467;SDS011;4772;52.382;9.752;2023-03-14T03:07:37;3.87;;;1.60;;
9467;SDS011;4772;52.382;9.752;2023-03-14T03:10:03;3.10;;;1.87;;
9467;SDS011;4772;52.382;9.752;2023-03-14T03:12:29;5.87;;;1.80;;
9467;SDS011;4772;52.382;9.752;2023-03-14T03:14:55;4.23;;;1.60;;
9467;SDS011;4772;52.382;9.752;2023-03-14T03:17:21;3.10;;;1.87;;
9467;SDS011;4772;52.382;9.752;2023-03-14T03:19:47;5.00;;;1.90;;
9467;SDS011;4772;52.382;9.752;2023-03-14T03:22:13;5.30;;;1.60;;
9467;SDS011;4772;52.382;9.752;2023-03-14T03:24:40;4.70;;;1.60;;
9467;SDS011;4772;52.382;9.752;2023-03-14T03:27:07;6.20;;;1.70;;
9467;SDS011;4772;52.382;9.752;2023-03-14T03:29:33;3.83;;;1.37;;
9467;SDS011;4772;52.382;9.752;2023-03-14T03:31:59;3.50;;;1.43;;
9467;SDS011;4772;52.382;9.752;2023-03-14T03:34:25;3.97;;;1.50;;
9467;SDS011;4772;52.382;9.752;2023-03-14T03:36:55;3.97;;;1.70;;
9467;SDS011;4772;52.382;9.752;2023-03-14T03:39:21;4.30;;;1.70;;
9467;SDS011;4772;52.382;9.752;2023-03-14T03:41:47;2.87;;;1.63;;
9467;SDS011;4772;52.382;9.752;2023-03-14T03:44:13;3.33;;;1.50;;
9467;SDS011;4772;52.382;9.752;2023-03-14T03:46:39;5.40;;;2.00;;
9467;SDS011;4772;52.382;9.752;2023-03-14T03:49:05;4.73;;;1.60;;
9467;SDS011;4772;52.382;9.752;2023-03-14T03:51:31;4.73;;;1.47;;
9467;SDS011;4772;52.382;9.752;2023-03-14T03:53:57;8.33;;;1.90;;
9467;SDS011;4772;52.382;9.752;2023-03-14T03:56:23;4.77;;;1.60;;
9467;SDS011;4772;52.382;9.752;2023-03-14T03:58:49;5.20;;;1.67;;
9467;SDS011;4772;52.382;9.752;2023-03-14T04:01:15;4.83;;;1.77;;
9467;SDS011;4772;52.382;9.752;2023-03-14T04:03:41;4.33;;;1.90;;
9467;SDS011;4772;52.382;9.752;2023-03-14T04:06:09;5.37;;;1.60;;
9467;SDS011;4772;52.382;9.752;2023-03-14T04:08:36;2.67;;;1.50;;
9467;SDS011;4772;52.382;9.752;2023-03-14T04:11:03;2.70;;;1.30;;
9467;SDS011;4772;52.382;9.752;2023-03-14T04:13:29;4.33;;;1.47;;
9467;SDS011;4772;52.382;9.752;2023-03-14T04:15:55;3.40;;;1.10;;
9467;SDS011;4772;52.382;9.752;2023-03-14T04:18:21;1.77;;;1.00;;
9467;SDS011;4772;52.382;9.752;2023-03-14T04:20:53;2.20;;;1.20;;
9467;SDS011;4772;52.382;9.752;2023-03-14T04:23:19;2.00;;;1.10;;
9467;SDS011;4772;52.382;9.752;2023-03-14T04:25:45;1.80;;;0.90;;
9467;SDS011;4772;52.382;9.752;2023-03-14T04:28:11;3.83;;;1.30;;
9467;SDS011;4772;52.382;9.752;2023-03-14T04:30:37;3.80;;;1.20;;
9467;SDS011;4772;52.382;9.752;2023-03-14T04:33:03;1.00;;;0.90;;
9467;SDS011;4772;52.382;9.752;2023-03-14T04:35:30;2.07;;;1.13;;
9467;SDS011;4772;52.382;9.752;2023-03-14T04:37:56;1.10;;;1.00;;
9467;SDS011;4772;52.382;9.752;2023-03-14T04:40:22;2.93;;;1.00;;
9467;SDS011;4772;52.382;9.752;2023-03-14T04:42:48;1.60;;;1.00;;
9467;SDS011;4772;52.382;9.752;2023-03-14T04:45:14;2.57;;;1.30;;
9467;SDS011;4772;52.382;9.752;2023-03-14T04:47:40;3.83;;;1.10;;
9467;SDS011;4772;52.382;9.752;2023-03-14T04:50:07;3.40;;;0.90;;
9467;SDS011;4772;52.382;9.752;2023-03-14T04:52:33;2.23;;;0.83;;
9467;SDS011;4772;52.382;9.752;2023-03-14T04:54:59;2.73;;;1.10;;
9467;SDS011;4772;52.382;9.752;2023-03-14T04:57:25;4.97;;;1.47;;
9467;SDS011;4772;52.382;9.752;2023-03-14T04:59:51;1.60;;;0.93;;
9467;SDS011;4772;52.382;9.752;2023-03-14T05:02:17;1.13;;;0.93;;
9467;SDS011;4772;52.382;9.752;2023-03-14T05:04:43;2.77;;;0.80;;
9467;SDS011;4772;52.382;9.752;2023-03-14T05:07:09;2.57;;;0.83;;
9467;SDS011;4772;52.382;9.752;2023-03-14T05:09:35;2.20;;;1.03;;
9467;SDS011;4772;52.382;9.752;2023-03-14T05:12:01;1.43;;;0.93;;
9467;SDS011;4772;52.382;9.752;2023-03-14T05:14:27;2.87;;;0.90;;
9467;SDS011;4772;52.382;9.752;2023-03-14T05:16:53;1.97;;;0.90;;
9467;SDS011;4772;52.382;9.752;2023-03-14T05:19:19;3.03;;;1.00;;
9467;SDS011;4772;52.382;9.752;2023-03-14T05:21:45;3.83;;;1.10;;
9467;SDS011;4772;52.382;9.752;2023-03-14T05:24:11;4.20;;;1.10;;
9467;SDS011;4772;52.382;9.752;2023-03-14T05:26:37;2.53;;;0.90;;
9467;SDS011;4772;52.382;9.752;2023-03-14T05:29:03;3.67;;;1.20;;
9467;SDS011;4772;52.382;9.752;2023-03-14T05:31:29;4.30;;;1.20;;
9467;SDS011;4772;52.382;9.752;2023-03-14T05:33:55;4.53;;;1.57;;
9467;SDS011;4772;52.382;9.752;2023-03-14T05:36:21;7.70;;;1.63;;
9467;SDS011;4772;52.382;9.752;2023-03-14T05:38:47;2.73;;;1.30;;
9467;SDS011;4772;52.382;9.752;2023-03-14T05:41:13;3.17;;;1.20;;
9467;SDS011;4772;52.382;9.752;2023-03-14T05:43:39;2.43;;;1.47;;
9467;SDS011;4772;52.382;9.752;2023-03-14T05:46:05;5.87;;;1.73;;
9467;SDS011;4772;52.382;9.752;2023-03-14T05:48:31;5.17;;;1.60;;
9467;SDS011;4772;52.382;9.752;2023-03-14T05:50:57;4.60;;;1.57;;
9467;SDS011;4772;52.382;9.752;2023-03-14T05:53:24;4.53;;;1.27;;
9467;SDS011;4772;52.382;9.752;2023-03-14T05:55:51;7.00;;;1.63;;
9467;SDS011;4772;52.382;9.752;2023-03-14T05:58:17;2.77;;;1.40;;
9467;SDS011;4772;52.382;9.752;2023-03-14T06:00:43;4.63;;;1.70;;
9467;SDS011;4772;52.382;9.752;2023-03-14T06:03:09;2.93;;;1.30;;
9467;SDS011;4772;52.382;9.752;2023-03-14T06:05:35;4.97;;;1.70;;
9467;SDS011;4772;52.382;9.752;2023-03-14T06:08:01;5.13;;;1.97;;
9467;SDS011;4772;52.382;9.752;2023-03-14T06:10:27;5.63;;;1.50;;
9467;SDS011;4772;52.382;9.752;2023-03-14T06:12:53;4.37;;;1.50;;
9467;SDS011;4772;52.382;9.752;2023-03-14T06:15:19;4.00;;;1.60;;
9467;SDS011;4772;52.382;9.752;2023-03-14T06:17:45;6.43;;;1.37;;
9467;SDS011;4772;52.382;9.752;2023-03-14T06:20:11;8.87;;;1.80;;
9467;SDS011;4772;52.382;9.752;2023-03-14T06:22:37;8.27;;;1.80;;
9467;SDS011;4772;52.382;9.752;2023-03-14T06:25:04;7.43;;;2.27;;
9467;SDS011;4772;52.382;9.752;2023-03-14T06:27:30;5.50;;;1.50;;
9467;SDS011;4772;52.382;9.752;2023-03-14T06:29:56;6.10;;;1.50;;
9467;SDS011;4772;52.382;9.752;2023-03-14T06:32:22;4.83;;;1.93;;
9467;SDS011;4772;52.382;9.752;2023-03-14T06:34:49;7.10;;;1.73;;
9467;SDS011;4772;52.382;9.752;2023-03-14T06:37:15;4.67;;;1.80;;
9467;SDS011;4772;52.382;9.752;2023-03-14T06:39:41;10.10;;;1.90;;
9467;SDS011;4772;52.382;9.752;2023-03-14T06:42:08;4.37;;;1.43;;
9467;SDS011;4772;52.382;9.752;2023-03-14T06:44:35;4.90;;;1.60;;
9467;SDS011;4772;52.382;9.752;2023-03-14T06:47:01;4.43;;;1.50;;
9467;SDS011;4772;52.382;9.752;2023-03-14T06:49:27;4.57;;;1.43;;
9467;SDS011;4772;52.382;9.752;2023-03-14T06:51:53;3.33;;;1.30;;
9467;SDS011;4772;52.382;9.752;2023-03-14T06:54:19;3.97;;;1.27;;
9467;SDS011;4772;52.382;9.752;2023-03-14T06:56:45;4.23;;;1.20;;
9467;SDS011;4772;52.382;9.752;2023-03-14T06:59:11;2.93;;;0.90;;
9467;SDS011;4772;52.382;9.752;2023-03-14T07:01:37;2.87;;;1.00;;
9467;SDS011;4772;52.382;9.752;2023-03-14T07:04:03;2.73;;;1.00;;
9467;SDS011;4772;52.382;9.752;2023-03-14T07:06:29;2.83;;;1.20;;
9467;SDS011;4772;52.382;9.752;2023-03-14T07:08:55;1.30;;;1.00;;
9467;SDS011;4772;52.382;9.752;2023-03-14T07:11:21;3.33;;;1.10;;
9467;SDS011;4772;52.382;9.752;2023-03-14T07:13:47;3.70;;;1.00;;
9467;SDS011;4772;52.382;9.752;2023-03-14T07:16:13;2.27;;;1.10;;
9467;SDS011;4772;52.382;9.752;2023-03-14T07:18:39;1.23;;;0.73;;
9467;SDS011;4772;52.382;9.752;2023-03-14T07:21:06;2.33;;;1.00;;
9467;SDS011;4772;52.382;9.752;2023-03-14T07:23:32;1.20;;;0.80;;
9467;SDS011;4772;52.382;9.752;2023-03-14T07:25:58;1.63;;;0.70;;
9467;SDS011;4772;52.382;9.752;2023-03-14T07:28:24;1.80;;;0.87;;
9467;SDS011;4772;52.382;9.752;2023-03-14T07:30:52;1.77;;;1.10;;
9467;SDS011;4772;52.382;9.752;2023-03-14T07:33:18;2.83;;;0.83;;
9467;SDS011;4772;52.382;9.752;2023-03-14T07:35:45;1.33;;;0.80;;
9467;SDS011;4772;52.382;9.752;2023-03-14T07:38:11;2.63;;;0.63;;
9467;SDS011;4772;52.382;9.752;2023-03-14T07:40:37;1.90;;;0.77;;
9467;SDS011;4772;52.382;9.752;2023-03-14T07:43:03;1.10;;;0.80;;
9467;SDS011;4772;52.382;9.752;2023-03-14T07:45:29;1.67;;;0.83;;
9467;SDS011;4772;52.382;9.752;2023-03-14T07:47:56;3.17;;;1.10;;
9467;SDS011;4772;52.382;9.752;2023-03-14T07:50:23;0.60;;;0.60;;
9467;SDS011;4772;52.382;9.752;2023-03-14T07:52:49;0.80;;;0.70;;
9467;SDS011;4772;52.382;9.752;2023-03-14T07:55:15;1.23;;;0.80;;
9467;SDS011;4772;52.382;9.752;2023-03-14T07:57:41;1.00;;;0.90;;
9467;SDS011;4772;52.382;9.752;2023-03-14T08:00:07;1.70;;;0.90;;
9467;SDS011;4772;52.382;9.752;2023-03-14T08:02:33;1.13;;;0.70;;
9467;SDS011;4772;52.382;9.752;2023-03-14T08:05:01;1.73;;;0.70;;
9467;SDS011;4772;52.382;9.752;2023-03-14T08:07:27;0.57;;;0.50;;
9467;SDS011;4772;52.382;9.752;2023-03-14T08:09:53;2.03;;;0.70;;
9467;SDS011;4772;52.382;9.752;2023-03-14T08:12:19;1.17;;;0.90;;
9467;SDS011;4772;52.382;9.752;2023-03-14T08:14:45;0.73;;;0.50;;
9467;SDS011;4772;52.382;9.752;2023-03-14T08:17:11;1.90;;;0.70;;
9467;SDS011;4772;52.382;9.752;2023-03-14T08:19:37;1.07;;;0.87;;
9467;SDS011;4772;52.382;9.752;2023-03-14T08:22:03;0.93;;;0.77;;
9467;SDS011;4772;52.382;9.752;2023-03-14T08:24:30;1.53;;;0.90;;
9467;SDS011;4772;52.382;9.752;2023-03-14T08:26:56;1.07;;;0.90;;
9467;SDS011;4772;52.382;9.752;2023-03-14T08:29:22;0.60;;;0.50;;
9467;SDS011;4772;52.382;9.752;2023-03-14T08:31:48;1.27;;;0.90;;
9467;SDS011;4772;52.382;9.752;2023-03-14T08:34:14;0.93;;;0.70;;
9467;SDS011;4772;52.382;9.752;2023-03-14T08:36:41;0.57;;;0.53;;
9467;SDS011;4772;52.382;9.752;2023-03-14T08:39:07;0.80;;;0.80;;
9467;SDS011;4772;52.382;9.752;2023-03-14T08:41:33;2.00;;;0.83;;
9467;SDS011;4772;52.382;9.752;2023-03-14T08:44:05;1.50;;;0.80;;
9467;SDS011;4772;52.382;9.752;2023-03-14T08:46:31;1.90;;;0.60;;
9467;SDS011;4772;52.382;9.752;2023-03-14T08:48:57;0.67;;;0.60;;
9467;SDS011;4772;52.382;9.752;2023-03-14T08:51:23;1.07;;;0.63;;
9467;SDS011;4772;52.382;9.752;2023-03-14T08:53:48;1.30;;;0.77;;
9467;SDS011;4772;52.382;9.752;2023-03-14T08:56:15;1.03;;;0.60;;
9467;SDS011;4772;52.382;9.752;2023-03-14T08:58:44;1.37;;;0.67;;
9467;SDS011;4772;52.382;9.752;2023-03-14T09:01:10;0.88;;;0.80;;
9467;SDS011;4772;52.382;9.752;2023-03-14T09:03:37;0.70;;;0.70;;
9467;SDS011;4772;52.382;9.752;2023-03-14T09:06:04;2.53;;;0.77;;
9467;SDS011;4772;52.382;9.752;2023-03-14T09:08:30;1.13;;;0.70;;
9467;SDS011;4772;52.382;9.752;2023-03-14T09:10:56;1.27;;;0.87;;
9467;SDS011;4772;52.382;9.752;2023-03-14T09:13:22;1.67;;;0.97;;
9467;SDS011;4772;52.382;9.752;2023-03-14T09:15:52;1.03;;;0.80;;
9467;SDS011;4772;52.382;9.752;2023-03-14T09:18:18;2.60;;;0.83;;
9467;SDS011;4772;52.382;9.752;2023-03-14T09:20:44;1.53;;;0.80;;
9467;SDS011;4772;52.382;9.752;2023-03-14T09:23:10;2.50;;;0.80;;
9467;SDS011;4772;52.382;9.752;2023-03-14T09:25:36;1.00;;;0.80;;
9467;SDS011;4772;52.382;9.752;2023-03-14T09:28:02;2.63;;;1.00;;
9467;SDS011;4772;52.382;9.752;2023-03-14T09:30:28;1.00;;;0.90;;
9467;SDS011;4772;52.382;9.752;2023-03-14T09:32:54;1.77;;;0.83;;
9467;SDS011;4772;52.382;9.752;2023-03-14T09:35:20;1.43;;;0.83;;
9467;SDS011;4772;52.382;9.752;2023-03-14T09:37:46;1.07;;;0.90;;
9467;SDS011;4772;52.382;9.752;2023-03-14T09:40:13;0.93;;;0.93;;
9467;SDS011;4772;52.382;9.752;2023-03-14T09:42:39;1.17;;;1.07;;
9467;SDS011;4772;52.382;9.752;2023-03-14T09:45:06;1.93;;;0.97;;
9467;SDS011;4772;52.382;9.752;2023-03-14T09:47:35;1.77;;;1.30;;
9467;SDS011;4772;52.382;9.752;2023-03-14T09:50:01;1.20;;;1.00;;
9467;SDS011;4772;52.382;9.752;2023-03-14T09:52:29;1.00;;;0.90;;
9467;SDS011;4772;52.382;9.752;2023-03-14T09:55:01;2.30;;;0.97;;
9467;SDS011;4772;52.382;9.752;2023-03-14T09:57:33;1.20;;;1.10;;
9467;SDS011;4772;52.382;9.752;2023-03-14T10:00:10;1.80;;;1.10;;
9467;SDS011;4772;52.382;9.752;2023-03-14T10:02:40;1.50;;;1.00;;
9467;SDS011;4772;52.382;9.752;2023-03-14T10:05:17;1.10;;;1.00;;
9467;SDS011;4772;52.382;9.752;2023-03-14T10:07:43;1.33;;;0.90;;
9467;SDS011;4772;52.382;9.752;2023-03-14T10:10:19;3.47;;;1.20;;
9467;SDS011;4772;52.382;9.752;2023-03-14T10:12:54;3.03;;;1.20;;
9467;SDS011;4772;52.382;9.752;2023-03-14T10:15:38;2.43;;;1.30;;
9467;SDS011;4772;52.382;9.752;2023-03-14T10:18:09;1.37;;;0.93;;
9467;SDS011;4772;52.382;9.752;2023-03-14T10:20:47;1.23;;;1.03;;
9467;SDS011;4772;52.382;9.752;2023-03-14T10:25:41;1.67;;;1.20;;
9467;SDS011;4772;52.382;9.752;2023-03-14T10:28:23;2.00;;;1.10;;
9467;SDS011;4772;52.382;9.752;2023-03-14T10:30:49;1.30;;;1.20;;
9467;SDS011;4772;52.382;9.752;2023-03-14T10:33:22;1.77;;;1.10;;
9467;SDS011;4772;52.382;9.752;2023-03-14T10:35:54;1.13;;;1.10;;
9467;SDS011;4772;52.382;9.752;2023-03-14T10:38:22;1.40;;;1.20;;
9467;SDS011;4772;52.382;9.752;2023-03-14T10:40:50;2.37;;;1.20;;
9467;SDS011;4772;52.382;9.752;2023-03-14T10:43:38;1.63;;;1.10;;
9467;SDS011;4772;52.382;9.752;2023-03-14T10:46:07;4.37;;;1.17;;
9467;SDS011;4772;52.382;9.752;2023-03-14T10:48:35;1.33;;;1.20;;
9467;SDS011;4772;52.382;9.752;2023-03-14T10:53:32;1.33;;;1.23;;
9467;SDS011;4772;52.382;9.752;2023-03-14T10:55:59;3.53;;;1.50;;
9467;SDS011;4772;52.382;9.752;2023-03-14T10:58:28;1.10;;;1.10;;
9467;SDS011;4772;52.382;9.752;2023-03-14T11:09:23;2.10;;;2.00;;
9467;SDS011;4772;52.382;9.752;2023-03-14T11:11:46;2.00;;;1.87;;
9467;SDS011;4772;52.382;9.752;2023-03-14T11:14:16;2.17;;;1.97;;
9467;SDS011;4772;52.382;9.752;2023-03-14T11:16:52;2.87;;;1.87;;
9467;SDS011;4772;52.382;9.752;2023-03-14T11:21:55;2.17;;;1.97;;
9467;SDS011;4772;52.382;9.752;2023-03-14T11:24:40;2.80;;;1.80;;
9467;SDS011;4772;52.382;9.752;2023-03-14T11:27:12;0.87;;;0.80;;
9467;SDS011;4772;52.382;9.752;2023-03-14T11:29:41;1.00;;;0.90;;
9467;SDS011;4772;52.382;9.752;2023-03-14T11:32:10;1.80;;;1.20;;
9467;SDS011;4772;52.382;9.752;2023-03-14T11:39:54;1.83;;;1.63;;
9467;SDS011;4772;52.382;9.752;2023-03-14T11:42:21;1.80;;;1.70;;
9467;SDS011;4772;52.382;9.752;2023-03-14T11:44:48;2.37;;;2.00;;
9467;SDS011;4772;52.382;9.752;2023-03-14T11:47:25;2.73;;;2.00;;
9467;SDS011;4772;52.382;9.752;2023-03-14T11:55:36;2.47;;;1.60;;
9467;SDS011;4772;52.382;9.752;2023-03-14T11:58:08;1.47;;;1.23;;
9467;SDS011;4772;52.382;9.752;2023-03-14T12:00:36;2.27;;;1.27;;
9467;SDS011;4772;52.382;9.752;2023-03-14T12:05:46;1.10;;;1.00;;
9467;SDS011;4772;52.382;9.752;2023-03-14T12:11:00;1.33;;;0.90;;
9467;SDS011;4772;52.382;9.752;2023-03-14T12:13:28;1.17;;;0.70;;
9467;SDS011;4772;52.382;9.752;2023-03-14T12:15:56;0.60;;;0.60;;
9467;SDS011;4772;52.382;9.752;2023-03-14T12:18:32;1.30;;;1.20;;
9467;SDS011;4772;52.382;9.752;2023-03-14T12:21:00;1.63;;;1.07;;
9467;SDS011;4772;52.382;9.752;2023-03-14T12:23:26;0.80;;;0.80;;
9467;SDS011;4772;52.382;9.752;2023-03-14T12:26:43;0.60;;;0.60;;
9467;SDS011;4772;52.382;9.752;2023-03-14T12:28:43;0.90;;;0.70;;
9467;SDS011;4772;52.382;9.752;2023-03-14T12:34:32;1.33;;;0.90;;
9467;SDS011;4772;52.382;9.752;2023-03-14T12:37:01;1.43;;;0.73;;
9467;SDS011;4772;52.382;9.752;2023-03-14T12:44:50;3.40;;;0.70;;
9467;SDS011;4772;52.382;9.752;2023-03-14T12:49:43;0.97;;;0.80;;
9467;SDS011;4772;52.382;9.752;2023-03-14T12:52:13;1.77;;;1.03;;
9467;SDS011;4772;52.382;9.752;2023-03-14T12:54:42;1.50;;;1.33;;
9467;SDS011;4772;52.382;9.752;2023-03-14T12:59:51;3.40;;;1.03;;
9467;SDS011;4772;52.382;9.752;2023-03-14T13:02:21;2.27;;;1.10;;
9467;SDS011;4772;52.382;9.752;2023-03-14T13:04:49;2.77;;;1.13;;
9467;SDS011;4772;52.382;9.752;2023-03-14T13:12:41;6.93;;;2.07;;
9467;SDS011;4772;52.382;9.752;2023-03-14T13:15:41;5.83;;;1.53;;
9467;SDS011;4772;52.382;9.752;2023-03-14T13:18:03;4.80;;;1.30;;
9467;SDS011;4772;52.382;9.752;2023-03-14T13:20:36;9.97;;;1.53;;
9467;SDS011;4772;52.382;9.752;2023-03-14T13:23:03;5.37;;;1.60;;
9467;SDS011;4772;52.382;9.752;2023-03-14T13:25:30;6.67;;;1.77;;
9467;SDS011;4772;52.382;9.752;2023-03-14T13:27:58;11.13;;;4.77;;
9467;SDS011;4772;52.382;9.752;2023-03-14T13:30:28;6.07;;;1.87;;
9467;SDS011;4772;52.382;9.752;2023-03-14T13:32:55;7.17;;;1.63;;
9467;SDS011;4772;52.382;9.752;2023-03-14T13:37:51;5.90;;;2.13;;
9467;SDS011;4772;52.382;9.752;2023-03-14T13:40:24;5.10;;;1.90;;
9467;SDS011;4772;52.382;9.752;2023-03-14T13:42:58;5.80;;;1.63;;
9467;SDS011;4772;52.382;9.752;2023-03-14T13:45:25;9.03;;;2.30;;
9467;SDS011;4772;52.382;9.752;2023-03-14T13:47:51;6.13;;;1.90;;
9467;SDS011;4772;52.382;9.752;2023-03-14T13:50:17;7.57;;;2.20;;
9467;SDS011;4772;52.382;9.752;2023-03-14T13:52:44;6.93;;;2.00;;
9467;SDS011;4772;52.382;9.752;2023-03-14T13:55:15;6.87;;;1.80;;
9467;SDS011;4772;52.382;9.752;2023-03-14T14:00:18;6.10;;;2.20;;
9467;SDS011;4772;52.382;9.752;2023-03-14T14:02:44;7.37;;;2.57;;
9467;SDS011;4772;52.382;9.752;2023-03-14T14:05:11;10.07;;;2.63;;
9467;SDS011;4772;52.382;9.752;2023-03-14T14:07:38;8.23;;;2.10;;
9467;SDS011;4772;52.382;9.752;2023-03-14T14:10:04;8.63;;;2.17;;
9467;SDS011;4772;52.382;9.752;2023-03-14T14:12:35;9.70;;;2.10;;
9467;SDS011;4772;52.382;9.752;2023-03-14T14:17:32;14.83;;;3.03;;
9467;SDS011;4772;52.382;9.752;2023-03-14T14:20:02;13.77;;;2.60;;
9467;SDS011;4772;52.382;9.752;2023-03-14T14:22:30;16.50;;;3.43;;
9467;SDS011;4772;52.382;9.752;2023-03-14T14:24:56;13.60;;;3.07;;
9467;SDS011;4772;52.382;9.752;2023-03-14T14:27:38;14.07;;;3.07;;
9467;SDS011;4772;52.382;9.752;2023-03-14T14:32:46;15.43;;;3.53;;
9467;SDS011;4772;52.382;9.752;2023-03-14T14:38:16;10.80;;;3.03;;
9467;SDS011;4772;52.382;9.752;2023-03-14T14:40:46;15.90;;;2.97;;
9467;SDS011;4772;52.382;9.752;2023-03-14T14:43:15;13.47;;;3.03;;
9467;SDS011;4772;52.382;9.752;2023-03-14T14:45:43;16.47;;;3.40;;
9467;SDS011;4772;52.382;9.752;2023-03-14T14:48:09;11.90;;;3.20;;
9467;SDS011;4772;52.382;9.752;2023-03-14T14:55:59;8.47;;;2.40;;
9467;SDS011;4772;52.382;9.752;2023-03-14T14:58:29;10.07;;;2.70;;
9467;SDS011;4772;52.382;9.752;2023-03-14T15:00:59;12.63;;;2.60;;
9467;SDS011;4772;52.382;9.752;2023-03-14T15:03:29;5.70;;;2.03;;
9467;SDS011;4772;52.382;9.752;2023-03-14T15:05:55;11.17;;;2.17;;
9467;SDS011;4772;52.382;9.752;2023-03-14T15:08:22;9.53;;;2.93;;
9467;SDS011;4772;52.382;9.752;2023-03-14T15:10:49;11.57;;;2.53;;
9467;SDS011;4772;52.382;9.752;2023-03-14T15:13:15;9.37;;;2.70;;
9467;SDS011;4772;52.382;9.752;2023-03-14T15:15:41;11.97;;;3.40;;
9467;SDS011;4772;52.382;9.752;2023-03-14T15:18:10;14.23;;;2.67;;
9467;SDS011;4772;52.382;9.752;2023-03-14T15:20:37;9.33;;;3.83;;
9467;SDS011;4772;52.382;9.752;2023-03-14T15:23:07;11.67;;;2.33;;
9467;SDS011;4772;52.382;9.752;2023-03-14T15:25:33;10.27;;;2.77;;
9467;SDS011;4772;52.382;9.752;2023-03-14T15:27:59;9.87;;;2.60;;
9467;SDS011;4772;52.382;9.752;2023-03-14T15:30:25;10.43;;;2.60;;
9467;SDS011;4772;52.382;9.752;2023-03-14T15:32:51;9.97;;;2.57;;
9467;SDS011;4772;52.382;9.752;2023-03-14T15:35:17;9.23;;;2.50;;
9467;SDS011;4772;52.382;9.752;2023-03-14T15:37:43;10.63;;;2.57;;
9467;SDS011;4772;52.382;9.752;2023-03-14T15:40:10;11.90;;;2.97;;
9467;SDS011;4772;52.382;9.752;2023-03-14T15:42:38;7.57;;;2.50;;
9467;SDS011;4772;52.382;9.752;2023-03-14T15:45:05;10.30;;;1.90;;
9467;SDS011;4772;52.382;9.752;2023-03-14T15:47:31;10.50;;;2.20;;
9467;SDS011;4772;52.382;9.752;2023-03-14T15:49:57;10.97;;;2.40;;
9467;SDS011;4772;52.382;9.752;2023-03-14T15:52:23;10.57;;;2.80;;
9467;SDS011;4772;52.382;9.752;2023-03-14T15:54:49;10.77;;;2.17;;
9467;SDS011;4772;52.382;9.752;2023-03-14T15:57:15;7.63;;;2.17;;
9467;SDS011;4772;52.382;9.752;2023-03-14T15:59:41;17.60;;;2.57;;
9467;SDS011;4772;52.382;9.752;2023-03-14T16:02:08;11.80;;;2.53;;
9467;SDS011;4772;52.382;9.752;2023-03-14T16:04:35;7.13;;;1.93;;
9467;SDS011;4772;52.382;9.752;2023-03-14T16:07:01;6.63;;;2.17;;
9467;SDS011;4772;52.382;9.752;2023-03-14T16:09:27;8.27;;;2.00;;
9467;SDS011;4772;52.382;9.752;2023-03-14T16:11:53;8.50;;;2.07;;
9467;SDS011;4772;52.382;9.752;2023-03-14T16:14:19;7.37;;;2.27;;
9467;SDS011;4772;52.382;9.752;2023-03-14T16:16:46;9.43;;;2.17;;
9467;SDS011;4772;52.382;9.752;2023-03-14T16:19:12;10.30;;;2.40;;
9467;SDS011;4772;52.382;9.752;2023-03-14T16:21:38;7.17;;;2.23;;
9467;SDS011;4772;52.382;9.752;2023-03-14T16:24:04;9.80;;;2.77;;
9467;SDS011;4772;52.382;9.752;2023-03-14T16:26:31;7.83;;;2.27;;
9467;SDS011;4772;52.382;9.752;2023-03-14T16:28:59;6.50;;;2.03;;
9467;SDS011;4772;52.382;9.752;2023-03-14T16:31:25;8.03;;;2.53;;
9467;SDS011;4772;52.382;9.752;2023-03-14T16:33:51;10.43;;;2.53;;